createdAt,value
2023-05-02T00:00:02.636Z,76700.34
2023-05-02T00:02:51.987Z,76694.25
2023-05-02T00:05:19.472Z,76690.19
2023-05-02T00:07:46.743Z,76690.19
2023-05-02T00:10:13.948Z,76690.19
2023-05-02T00:12:41.363Z,76688.16
2023-05-02T00:15:09.572Z,76690.19
2023-05-02T00:17:37.145Z,76690.19
2023-05-02T00:20:05.017Z,76694.25
2023-05-02T00:22:32.351Z,76698.31
2023-05-02T00:24:59.946Z,76696.28
2023-05-02T00:27:26.988Z,76698.31
2023-05-02T00:29:55.233Z,76696.28
2023-05-02T00:32:22.208Z,76702.34
2023-05-02T00:34:49.684Z,76698.31
2023-05-02T00:37:16.721Z,76700.34
2023-05-02T00:39:45.056Z,76698.31
2023-05-02T00:42:12.152Z,76698.31
2023-05-02T00:44:40.567Z,76706.41
2023-05-02T00:47:08.062Z,76702.34
2023-05-02T00:49:35.556Z,76702.34
2023-05-02T00:52:03.308Z,76708.44
2023-05-02T00:54:31.371Z,76702.34
2023-05-02T00:56:58.984Z,76706.41
2023-05-02T00:59:28.313Z,76708.44
2023-05-02T01:02:10.310Z,76708.44
2023-05-02T01:04:40.922Z,76706.41
2023-05-02T01:07:27.612Z,76702.34
2023-05-02T01:10:30.871Z,76698.31
2023-05-02T01:13:07.938Z,76696.28
2023-05-02T01:15:39.592Z,76702.34
2023-05-02T01:18:09.659Z,76698.31
2023-05-02T01:20:42.002Z,76698.31
2023-05-02T01:23:23.512Z,76702.34
2023-05-02T01:26:09.912Z,76702.34
2023-05-02T01:28:53.438Z,76706.41
2023-05-02T01:31:23.736Z,76702.34
2023-05-02T01:33:52.353Z,76706.41
2023-05-02T01:36:20.936Z,76694.25
2023-05-02T01:38:50.693Z,76690.19
2023-05-02T01:41:19.414Z,76696.28
2023-05-02T01:43:48.924Z,76698.31
2023-05-02T01:46:17.658Z,76694.25
2023-05-02T01:48:47.914Z,76700.34
2023-05-02T01:51:18.065Z,76692.22
2023-05-02T01:53:49.299Z,76690.19
2023-05-02T01:56:20.104Z,76696.28
2023-05-02T01:58:49.770Z,76698.31
2023-05-02T02:01:18.454Z,76702.34
2023-05-02T02:03:47.088Z,76708.44
2023-05-02T02:06:16.182Z,76714.53
2023-05-02T02:08:43.711Z,76718.56
2023-05-02T02:11:17.111Z,76718.56
2023-05-02T02:13:53.107Z,76722.63
2023-05-02T02:16:25.819Z,76730.75
2023-05-02T02:18:56.627Z,76722.63
2023-05-02T02:21:27.133Z,76730.75
2023-05-02T02:23:57.688Z,76722.63
2023-05-02T02:26:25.001Z,76728.72
2023-05-02T02:28:52.484Z,76732.75
2023-05-02T02:31:20.750Z,76734.78
2023-05-02T02:33:48.949Z,76736.81
2023-05-02T02:36:24.788Z,76738.84
2023-05-02T02:39:16.701Z,76734.78
2023-05-02T02:42:08.108Z,76734.78
2023-05-02T02:44:47.794Z,76734.78
2023-05-02T02:47:47.531Z,76736.81
2023-05-02T02:50:36.632Z,76740.88
2023-05-02T02:53:15.136Z,76738.84
2023-05-02T02:55:57.888Z,76734.78
2023-05-02T02:59:04.877Z,76738.84
2023-05-02T03:01:34.192Z,76732.75
2023-05-02T03:04:06.085Z,76736.81
2023-05-02T03:06:33.546Z,76734.78
2023-05-02T03:09:01.767Z,76734.78
2023-05-02T03:11:30.409Z,76742.91
2023-05-02T03:13:58.737Z,76738.84
2023-05-02T03:16:40.368Z,76751.00
2023-05-02T03:19:12.508Z,76746.97
2023-05-02T03:21:39.720Z,76746.97
2023-05-02T03:24:13.618Z,76746.97
2023-05-02T03:26:40.705Z,76746.97
2023-05-02T03:29:11.136Z,76746.97
2023-05-02T03:31:41.748Z,76742.91
2023-05-02T03:34:09.246Z,76744.94
2023-05-02T03:36:37.695Z,76746.97
2023-05-02T03:39:05.103Z,76746.97
2023-05-02T03:41:32.230Z,76746.97
2023-05-02T03:44:05.601Z,76730.75
2023-05-02T03:46:33.103Z,76738.84
2023-05-02T03:49:01.836Z,76730.75
2023-05-02T03:51:28.926Z,76716.56
2023-05-02T03:53:58.548Z,76722.63
2023-05-02T03:56:26.605Z,76710.47
2023-05-02T03:59:12.158Z,76714.53
2023-05-02T04:01:39.979Z,76714.53
2023-05-02T04:04:08.878Z,76710.47
2023-05-02T04:06:42.212Z,76706.41
2023-05-02T04:09:10.816Z,76686.13
2023-05-02T04:11:45.823Z,76680.06
2023-05-02T04:14:14.021Z,76665.88
2023-05-02T04:16:48.265Z,76657.75
2023-05-02T04:19:19.122Z,76649.66
2023-05-02T04:21:46.237Z,76643.56
2023-05-02T04:24:15.022Z,76641.53
2023-05-02T04:26:42.743Z,76631.41
2023-05-02T04:29:13.809Z,76617.22
2023-05-02T04:31:41.934Z,76605.06
2023-05-02T04:34:10.446Z,76601.00
2023-05-02T04:36:45.108Z,76592.91
2023-05-02T04:39:15.658Z,76584.78
2023-05-02T04:41:50.355Z,76572.63
2023-05-02T04:44:18.417Z,76564.50
2023-05-02T04:46:46.163Z,76560.47
2023-05-02T04:49:13.928Z,76558.44
2023-05-02T04:51:41.796Z,76550.31
2023-05-02T04:54:10.106Z,76532.09
2023-05-02T04:56:37.537Z,76528.03
2023-05-02T04:59:05.354Z,76519.91
2023-05-02T05:01:33.466Z,76513.84
2023-05-02T05:04:03.155Z,76511.81
2023-05-02T05:06:32.031Z,76499.66
2023-05-02T05:09:00.190Z,76491.53
2023-05-02T05:11:27.102Z,76471.28
2023-05-02T05:13:54.560Z,76446.94
2023-05-02T05:16:22.621Z,76438.84
2023-05-02T05:18:53.880Z,76418.56
2023-05-02T05:21:21.441Z,76398.28
2023-05-02T05:23:49.454Z,76373.97
2023-05-02T05:26:25.411Z,76349.66
2023-05-02T05:28:53.394Z,76325.31
2023-05-02T05:31:24.129Z,76303.03
2023-05-02T05:33:55.369Z,76288.84
2023-05-02T05:36:24.157Z,76268.56
2023-05-02T05:38:52.417Z,76240.19
2023-05-02T05:41:20.297Z,76228.03
2023-05-02T05:43:52.391Z,76211.81
2023-05-02T05:46:20.417Z,76191.56
2023-05-02T05:48:47.641Z,76191.56
2023-05-02T05:51:15.228Z,76169.25
2023-05-02T05:53:42.516Z,76142.91
2023-05-02T05:56:13.110Z,76114.53
2023-05-02T05:58:50.396Z,76094.25
2023-05-02T06:01:17.691Z,76082.09
2023-05-02T06:03:45.978Z,76061.84
2023-05-02T06:06:15.635Z,76045.63
2023-05-02T06:08:43.048Z,76027.38
2023-05-02T06:11:11.968Z,76013.19
2023-05-02T06:13:39.281Z,75992.94
2023-05-02T06:16:07.666Z,75980.75
2023-05-02T06:18:35.815Z,75964.56
2023-05-02T06:21:06.992Z,75952.38
2023-05-02T06:23:34.708Z,75928.06
2023-05-02T06:26:02.963Z,75899.69
2023-05-02T06:28:30.859Z,75869.28
2023-05-02T06:31:06.130Z,75838.91
2023-05-02T06:33:34.485Z,75840.91
2023-05-02T06:36:02.285Z,75847.00
2023-05-02T06:38:30.337Z,75847.00
2023-05-02T06:40:57.305Z,75851.06
2023-05-02T06:43:24.932Z,75836.88
2023-05-02T06:45:59.063Z,75822.69
2023-05-02T06:48:26.363Z,75800.38
2023-05-02T06:50:54.071Z,75774.03
2023-05-02T06:53:21.595Z,75745.66
2023-05-02T06:55:49.263Z,75729.47
2023-05-02T06:58:17.016Z,75715.28
2023-05-02T07:00:43.988Z,75715.28
2023-05-02T07:03:11.568Z,75705.13
2023-05-02T07:05:38.746Z,75692.97
2023-05-02T07:08:06.793Z,75676.75
2023-05-02T07:10:33.917Z,75660.56
2023-05-02T07:13:01.675Z,75656.50
2023-05-02T07:15:29.194Z,75644.34
2023-05-02T07:17:56.552Z,75624.06
2023-05-02T07:20:23.820Z,75607.88
2023-05-02T07:22:51.495Z,75603.81
2023-05-02T07:25:18.325Z,75589.63
2023-05-02T07:27:45.822Z,75563.28
2023-05-02T07:30:13.335Z,75551.13
2023-05-02T07:32:41.117Z,75532.88
2023-05-02T07:35:08.953Z,75518.69
2023-05-02T07:37:36.978Z,75486.28
2023-05-02T07:40:04.729Z,75470.06
2023-05-02T07:42:32.954Z,75441.69
2023-05-02T07:45:00.559Z,75429.53
2023-05-02T07:47:28.307Z,75429.53
2023-05-02T07:49:56.487Z,75425.47
2023-05-02T07:52:24.242Z,75423.47
2023-05-02T07:54:51.837Z,75417.38
2023-05-02T07:57:20.011Z,75409.28
2023-05-02T07:59:48.569Z,75407.25
2023-05-02T08:02:17.881Z,75393.06
2023-05-02T08:04:45.263Z,75380.91
2023-05-02T08:07:13.453Z,75368.75
2023-05-02T08:09:42.204Z,75368.75
2023-05-02T08:12:10.401Z,75366.72
2023-05-02T08:14:37.479Z,75372.78
2023-05-02T08:17:05.906Z,75372.78
2023-05-02T08:19:33.431Z,75356.59
2023-05-02T08:22:01.488Z,75340.38
2023-05-02T08:24:28.777Z,75340.38
2023-05-02T08:26:56.018Z,75344.44
2023-05-02T08:29:24.735Z,75352.53
2023-05-02T08:31:52.696Z,75336.31
2023-05-02T08:34:19.938Z,75344.44
2023-05-02T08:36:48.542Z,75336.31
2023-05-02T08:39:17.489Z,75314.03
2023-05-02T08:41:46.057Z,75299.84
2023-05-02T08:44:13.459Z,75299.84
2023-05-02T08:46:43.161Z,75289.72
2023-05-02T08:49:11.461Z,75283.63
2023-05-02T08:51:41.316Z,75271.47
2023-05-02T08:54:10.179Z,75267.44
2023-05-02T08:56:38.033Z,75251.22
2023-05-02T08:59:06.889Z,75251.22
2023-05-02T09:01:36.282Z,75255.25
2023-05-02T09:04:03.498Z,75241.09
2023-05-02T09:06:31.140Z,75210.69
2023-05-02T09:09:00.637Z,75194.47
2023-05-02T09:11:29.360Z,75184.34
2023-05-02T09:13:59.342Z,75174.22
2023-05-02T09:16:27.511Z,75137.75
2023-05-02T09:18:57.078Z,75137.75
2023-05-02T09:21:26.796Z,75117.47
2023-05-02T09:23:59.475Z,75099.25
2023-05-02T09:26:35.198Z,75060.75
2023-05-02T09:29:04.975Z,75072.91
2023-05-02T09:31:54.856Z,75085.06
2023-05-02T09:34:23.467Z,75076.97
2023-05-02T09:36:54.471Z,75081.00
2023-05-02T09:39:29.933Z,75113.44
2023-05-02T09:41:59.997Z,75137.75
2023-05-02T09:44:36.487Z,75129.63
2023-05-02T09:47:07.126Z,75117.47
2023-05-02T09:49:46.141Z,75125.59
2023-05-02T09:52:16.416Z,75113.44
2023-05-02T09:54:47.091Z,75105.31
2023-05-02T09:57:14.989Z,75125.59
2023-05-02T09:59:52.882Z,75123.56
2023-05-02T10:02:22.026Z,75109.38
2023-05-02T10:04:51.329Z,75097.22
2023-05-02T10:07:19.515Z,75093.16
2023-05-02T10:09:50.266Z,75133.69
2023-05-02T10:12:22.584Z,75133.69
2023-05-02T10:14:55.902Z,75141.78
2023-05-02T10:17:31.193Z,75135.72
2023-05-02T10:20:05.496Z,75125.59
2023-05-02T10:22:36.951Z,75133.69
2023-05-02T10:25:05.148Z,75170.16
2023-05-02T10:27:33.231Z,75186.38
2023-05-02T10:30:02.466Z,75218.78
2023-05-02T10:32:30.378Z,75255.25
2023-05-02T10:34:59.112Z,75289.72
2023-05-02T10:37:28.036Z,75322.13
2023-05-02T10:39:55.417Z,75326.19
2023-05-02T10:42:23.870Z,75336.31
2023-05-02T10:44:51.285Z,75356.59
2023-05-02T10:47:22.726Z,75376.84
2023-05-02T10:49:54.510Z,75409.28
2023-05-02T10:52:41.728Z,75433.59
2023-05-02T10:55:24.436Z,75466.00
2023-05-02T10:57:57.786Z,75494.38
2023-05-02T11:00:30.182Z,75518.69
2023-05-02T11:02:58.065Z,75534.91
2023-05-02T11:05:26.315Z,75538.97
2023-05-02T11:08:15.415Z,75567.34
2023-05-02T11:10:42.954Z,75575.44
2023-05-02T11:13:10.531Z,75611.91
2023-05-02T11:15:40.545Z,75636.22
2023-05-02T11:18:08.203Z,75701.09
2023-05-02T11:20:36.634Z,75747.69
2023-05-02T11:23:16.585Z,75802.41
2023-05-02T11:25:57.406Z,75836.88
2023-05-02T11:28:36.954Z,75851.06
2023-05-02T11:31:05.733Z,75855.09
2023-05-02T11:33:33.418Z,75871.31
2023-05-02T11:36:00.859Z,75883.47
2023-05-02T11:38:36.864Z,75901.72
2023-05-02T11:41:04.693Z,75911.84
2023-05-02T11:43:32.764Z,75911.84
2023-05-02T11:46:02.611Z,75899.69
2023-05-02T11:48:31.143Z,75857.13
2023-05-02T11:51:05.004Z,75838.91
2023-05-02T11:53:33.517Z,75806.47
2023-05-02T11:56:05.097Z,75794.31
2023-05-02T11:58:33.899Z,75778.09
2023-05-02T12:01:15.206Z,75778.09
2023-05-02T12:03:43.665Z,75765.94
2023-05-02T12:06:13.267Z,75741.63
2023-05-02T12:08:42.960Z,75761.88
2023-05-02T12:11:12.978Z,75774.03
2023-05-02T12:13:50.866Z,75767.97
2023-05-02T12:16:19.997Z,75739.59
2023-05-02T12:18:48.331Z,75709.19
2023-05-02T12:21:16.107Z,75684.88
2023-05-02T12:23:44.116Z,75664.59
2023-05-02T12:26:22.493Z,75632.19
2023-05-02T12:28:52.280Z,75587.59
2023-05-02T12:31:19.894Z,75569.34
2023-05-02T12:33:48.823Z,75559.22
2023-05-02T12:36:16.575Z,75583.53
2023-05-02T12:38:55.153Z,75575.44
2023-05-02T12:41:36.639Z,75579.50
2023-05-02T12:44:05.711Z,75559.22
2023-05-02T12:46:33.304Z,75534.91
2023-05-02T12:49:09.382Z,75516.66
2023-05-02T12:51:38.274Z,75526.81
2023-05-02T12:54:06.851Z,75534.91
2023-05-02T12:56:43.934Z,75522.75
2023-05-02T12:59:27.109Z,75508.56
2023-05-02T13:01:54.688Z,75538.97
2023-05-02T13:04:22.368Z,75589.63
2023-05-02T13:06:50.363Z,75636.22
2023-05-02T13:09:18.849Z,75664.59
2023-05-02T13:11:46.166Z,75676.75
2023-05-02T13:14:13.619Z,75688.94
2023-05-02T13:16:41.176Z,75688.94
2023-05-02T13:19:09.022Z,75697.03
2023-05-02T13:21:36.008Z,75697.03
2023-05-02T13:24:04.382Z,75680.81
2023-05-02T13:26:32.243Z,75684.88
2023-05-02T13:28:59.407Z,75703.13
2023-05-02T13:31:26.860Z,75672.72
2023-05-02T13:33:54.279Z,75664.59
2023-05-02T13:36:21.613Z,75664.59
2023-05-02T13:38:48.949Z,75656.50
2023-05-02T13:41:16.701Z,75652.44
2023-05-02T13:43:44.071Z,75607.88
2023-05-02T13:46:11.280Z,75577.47
2023-05-02T13:48:38.683Z,75555.19
2023-05-02T13:51:06.133Z,75551.13
2023-05-02T13:53:33.368Z,75543.00
2023-05-02T13:56:00.666Z,75543.00
2023-05-02T13:58:27.995Z,75545.03
2023-05-02T14:00:55.042Z,75559.22
2023-05-02T14:03:22.403Z,75579.50
2023-05-02T14:05:50.004Z,75571.38
2023-05-02T14:08:19.237Z,75583.53
2023-05-02T14:10:46.387Z,75581.53
2023-05-02T14:13:13.846Z,75559.22
2023-05-02T14:15:41.080Z,75563.28
2023-05-02T14:18:09.109Z,75551.13
2023-05-02T14:20:36.457Z,75518.69
2023-05-02T14:23:05.179Z,75478.16
2023-05-02T14:25:33.901Z,75466.00
2023-05-02T14:28:02.624Z,75494.38
2023-05-02T14:30:30.294Z,75510.59
2023-05-02T14:32:59.366Z,75518.69
2023-05-02T14:35:27.696Z,75534.91
2023-05-02T14:37:55.651Z,75555.19
2023-05-02T14:40:22.796Z,75579.50
2023-05-02T14:42:50.414Z,75599.75
2023-05-02T14:45:17.404Z,75607.88
2023-05-02T14:47:45.207Z,75628.13
2023-05-02T14:50:12.776Z,75638.25
2023-05-02T14:52:41.109Z,75672.72
2023-05-02T14:55:09.402Z,75672.72
2023-05-02T14:57:37.235Z,75680.81
2023-05-02T15:00:08.556Z,75684.88
2023-05-02T15:02:36.867Z,75692.97
2023-05-02T15:05:07.585Z,75692.97
2023-05-02T15:07:35.405Z,75703.13
2023-05-02T15:10:02.714Z,75707.16
2023-05-02T15:12:31.110Z,75701.09
2023-05-02T15:14:58.781Z,75701.09
2023-05-02T15:17:26.671Z,75697.03
2023-05-02T15:19:55.844Z,75692.97
2023-05-02T15:22:26.077Z,75688.94
2023-05-02T15:24:53.526Z,75697.03
2023-05-02T15:27:20.733Z,75701.09
2023-05-02T15:29:47.718Z,75699.06
2023-05-02T15:32:15.198Z,75705.13
2023-05-02T15:34:43.936Z,75705.13
2023-05-02T15:37:12.679Z,75713.25
2023-05-02T15:39:39.733Z,75705.13
2023-05-02T15:42:07.512Z,75709.19
2023-05-02T15:44:37.921Z,75721.34
2023-05-02T15:47:05.928Z,75725.41
2023-05-02T15:49:34.655Z,75725.41
2023-05-02T15:52:03.001Z,75725.41
2023-05-02T15:54:31.922Z,75721.34
2023-05-02T15:56:59.188Z,75727.44
2023-05-02T15:59:26.326Z,75725.41
2023-05-02T16:01:53.654Z,75721.34
2023-05-02T16:04:20.730Z,75725.41
2023-05-02T16:06:48.110Z,75717.28
2023-05-02T16:09:15.288Z,75709.19
2023-05-02T16:11:42.621Z,75703.13
2023-05-02T16:14:10.127Z,75705.13
2023-05-02T16:16:37.596Z,75705.13
2023-05-02T16:19:04.714Z,75688.94
2023-05-02T16:21:32.078Z,75686.91
2023-05-02T16:23:59.934Z,75692.97
2023-05-02T16:26:28.167Z,75690.94
2023-05-02T16:28:57.047Z,75697.03
2023-05-02T16:31:27.260Z,75709.19
2023-05-02T16:33:54.426Z,75713.25
2023-05-02T16:36:21.912Z,75717.28
2023-05-02T16:38:49.314Z,75729.47
2023-05-02T16:41:16.729Z,75725.41
2023-05-02T16:43:44.019Z,75739.59
2023-05-02T16:46:11.534Z,75745.66
2023-05-02T16:48:38.500Z,75749.72
2023-05-02T16:51:06.009Z,75763.91
2023-05-02T16:53:33.077Z,75774.03
2023-05-02T16:56:00.785Z,75770.00
2023-05-02T16:58:29.231Z,75782.16
2023-05-02T17:00:59.158Z,75786.19
2023-05-02T17:03:27.126Z,75798.38
2023-05-02T17:05:58.909Z,75802.41
2023-05-02T17:08:26.167Z,75806.47
2023-05-02T17:10:53.853Z,75818.63
2023-05-02T17:13:22.237Z,75830.78
2023-05-02T17:15:50.200Z,75830.78
2023-05-02T17:18:17.376Z,75838.91
2023-05-02T17:20:46.168Z,75842.94
2023-05-02T17:23:13.605Z,75847.00
2023-05-02T17:25:42.087Z,75851.06
2023-05-02T17:28:09.116Z,75863.22
2023-05-02T17:30:37.095Z,75867.28
2023-05-02T17:33:04.264Z,75879.44
2023-05-02T17:35:31.875Z,75891.59
2023-05-02T17:37:58.949Z,75897.66
2023-05-02T17:40:26.754Z,75907.81
2023-05-02T17:42:55.504Z,75913.88
2023-05-02T17:45:23.323Z,75911.84
2023-05-02T17:47:50.671Z,75919.97
2023-05-02T17:50:18.323Z,75930.09
2023-05-02T17:52:45.745Z,75936.19
2023-05-02T17:55:13.129Z,75944.28
2023-05-02T17:57:40.323Z,75952.38
2023-05-02T18:00:08.230Z,75964.56
2023-05-02T18:02:38.511Z,75970.63
2023-05-02T18:05:06.961Z,75972.66
2023-05-02T18:07:34.176Z,75976.72
2023-05-02T18:10:02.458Z,75988.88
2023-05-02T18:12:29.665Z,75992.94
2023-05-02T18:14:57.299Z,75992.94
2023-05-02T18:17:24.375Z,75992.94
2023-05-02T18:19:51.713Z,76001.03
2023-05-02T18:22:21.838Z,76005.09
2023-05-02T18:24:49.857Z,76005.09
2023-05-02T18:27:18.036Z,76009.13
2023-05-02T18:29:45.474Z,76013.19
2023-05-02T18:32:12.884Z,76021.31
2023-05-02T18:34:40.209Z,76025.34
2023-05-02T18:37:08.112Z,76025.34
2023-05-02T18:39:36.425Z,76033.47
2023-05-02T18:42:04.401Z,76043.59
2023-05-02T18:44:31.969Z,76041.56
2023-05-02T18:46:59.672Z,76053.72
2023-05-02T18:49:27.096Z,76057.78
2023-05-02T18:51:55.384Z,76065.88
2023-05-02T18:54:26.493Z,76057.78
2023-05-02T18:56:53.424Z,76053.72
2023-05-02T18:59:21.191Z,76061.84
2023-05-02T19:01:48.940Z,76057.78
2023-05-02T19:04:16.220Z,76063.88
2023-05-02T19:06:43.453Z,76067.91
2023-05-02T19:09:13.826Z,76069.94
2023-05-02T19:11:43.958Z,76069.94
2023-05-02T19:14:11.903Z,76074.00
2023-05-02T19:16:40.753Z,76078.06
2023-05-02T19:19:08.557Z,76090.22
2023-05-02T19:21:35.759Z,76086.16
2023-05-02T19:24:03.968Z,76078.06
2023-05-02T19:26:30.977Z,76088.19
2023-05-02T19:28:58.508Z,76088.19
2023-05-02T19:31:25.931Z,76094.25
2023-05-02T19:33:54.836Z,76110.47
2023-05-02T19:36:23.709Z,76114.53
2023-05-02T19:38:54.144Z,76130.75
2023-05-02T19:41:24.846Z,76146.97
2023-05-02T19:43:52.886Z,76159.13
2023-05-02T19:46:19.916Z,76173.31
2023-05-02T19:48:47.293Z,76193.56
2023-05-02T19:51:14.558Z,76223.97
2023-05-02T19:53:42.412Z,76252.34
2023-05-02T19:56:09.400Z,76272.63
2023-05-02T19:58:37.282Z,76288.84
2023-05-02T20:01:04.437Z,76307.09
2023-05-02T20:03:32.092Z,76313.16
2023-05-02T20:05:59.244Z,76331.41
2023-05-02T20:08:28.198Z,76345.59
2023-05-02T20:10:55.933Z,76365.88
2023-05-02T20:13:24.566Z,76378.03
2023-05-02T20:15:52.866Z,76390.19
2023-05-02T20:18:21.010Z,76402.34
2023-05-02T20:20:48.177Z,76414.50
2023-05-02T20:23:16.111Z,76418.56
2023-05-02T20:25:43.894Z,76422.63
2023-05-02T20:28:12.175Z,76434.78
2023-05-02T20:30:39.889Z,76436.81
2023-05-02T20:33:15.642Z,76440.88
2023-05-02T20:35:44.210Z,76442.91
2023-05-02T20:38:12.123Z,76451.00
2023-05-02T20:40:40.809Z,76446.94
2023-05-02T20:43:08.872Z,76463.16
2023-05-02T20:45:36.250Z,76463.16
2023-05-02T20:48:03.790Z,76475.31
2023-05-02T20:50:31.559Z,76479.38
2023-05-02T20:52:59.382Z,76485.47
2023-05-02T20:55:26.606Z,76487.50
2023-05-02T20:57:54.030Z,76499.66
2023-05-02T21:00:24.010Z,76505.72
2023-05-02T21:02:51.532Z,76511.81
2023-05-02T21:05:18.676Z,76523.97
2023-05-02T21:07:46.550Z,76536.13
2023-05-02T21:10:14.049Z,76536.13
2023-05-02T21:12:41.473Z,76554.38
2023-05-02T21:15:08.728Z,76566.53
2023-05-02T21:17:38.869Z,76576.69
2023-05-02T21:20:07.044Z,76572.63
2023-05-02T21:22:34.390Z,76580.72
2023-05-02T21:25:01.716Z,76588.84
2023-05-02T21:27:29.301Z,76596.94
2023-05-02T21:29:56.652Z,76605.06
2023-05-02T21:32:24.122Z,76617.22
2023-05-02T21:34:51.313Z,76621.28
2023-05-02T21:37:18.598Z,76625.31
2023-05-02T21:39:46.022Z,76641.53
2023-05-02T21:42:13.402Z,76645.59
2023-05-02T21:44:40.830Z,76661.81
2023-05-02T21:47:08.252Z,76673.97
2023-05-02T21:49:35.339Z,76669.94
2023-05-02T21:52:03.566Z,76702.34
2023-05-02T21:54:30.618Z,76746.97
2023-05-02T21:56:59.232Z,76785.47
2023-05-02T21:59:26.366Z,76819.94
2023-05-02T22:01:53.813Z,76848.31
2023-05-02T22:04:20.973Z,76864.53
2023-05-02T22:06:52.239Z,76880.75
2023-05-02T22:09:19.537Z,76894.94
2023-05-02T22:11:47.551Z,76905.09
2023-05-02T22:14:14.427Z,76909.13
2023-05-02T22:16:42.170Z,76907.09
2023-05-02T22:19:11.707Z,76905.09
2023-05-02T22:21:39.345Z,76905.09
2023-05-02T22:24:06.609Z,76917.25
2023-05-02T22:26:34.033Z,76925.34
2023-05-02T22:29:01.197Z,76937.53
2023-05-02T22:31:28.887Z,76949.69
2023-05-02T22:33:56.544Z,76957.78
2023-05-02T22:36:24.162Z,76965.91
2023-05-02T22:38:51.090Z,76982.13
2023-05-02T22:41:18.239Z,76982.13
2023-05-02T22:43:45.560Z,76994.28
2023-05-02T22:46:13.308Z,77002.41
2023-05-02T22:48:40.776Z,76998.34
2023-05-02T22:51:08.138Z,77002.41
2023-05-02T22:53:35.488Z,77006.44
2023-05-02T22:56:03.438Z,77010.50
2023-05-02T22:58:30.719Z,77002.41
2023-05-02T23:00:58.298Z,77002.41
2023-05-02T23:03:25.674Z,76998.34
2023-05-02T23:05:52.786Z,76994.28
2023-05-02T23:08:20.194Z,77002.41
2023-05-02T23:10:47.734Z,77006.44
2023-05-02T23:13:14.981Z,77002.41
2023-05-02T23:15:42.285Z,76994.28
2023-05-02T23:18:09.355Z,77002.41
2023-05-02T23:20:37.108Z,76998.34
2023-05-02T23:23:05.237Z,77002.41
2023-05-02T23:25:33.588Z,76994.28
2023-05-02T23:28:00.520Z,77006.44
2023-05-02T23:30:30.533Z,77006.44
2023-05-02T23:33:01.073Z,77000.38
2023-05-02T23:35:28.542Z,77004.41
2023-05-02T23:37:56.008Z,77002.41
2023-05-02T23:40:23.238Z,77006.44
2023-05-02T23:42:50.367Z,77010.50
2023-05-02T23:45:17.658Z,77006.44
2023-05-02T23:47:44.653Z,77012.53
2023-05-02T23:50:12.500Z,77024.69
2023-05-02T23:52:39.645Z,77022.66
2023-05-02T23:55:10.821Z,77022.66
2023-05-02T23:57:38.497Z,77026.72
